Time;durP1;ratioP1;P1;durP2;ratioP2;P2;SDS_P1;SDS_P2;PMS_P1;PMS_P2;Temp;Humidity;BMP_temperature;BMP_pressure;BME280_temperature;BME280_humidity;BME280_pressure;Samples;Min_cycle;Max_cycle;Signal;HPM_P1;HPM_P2
2022/07/27 00:02:18;;;;;;;16.57;4.53;;;;;;;12.18;100.00;100944.63;7392038;19;20757;-53
2022/07/27 00:04:48;;;;;;;9.13;1.80;;;;;;;12.25;100.00;100943.16;7399056;19;20398;-53
2022/07/27 00:07:18;;;;;;;10.80;1.83;;;;;;;12.30;100.00;100951.94;7390441;19;20402;-56
2022/07/27 00:09:50;;;;;;;27.47;7.10;;;;;;;12.32;100.00;100955.50;7399144;19;20476;-54
2022/07/27 00:12:19;;;;;;;9.43;2.47;;;;;;;12.26;100.00;100961.31;7391838;19;20429;-51
2022/07/27 00:14:49;;;;;;;10.30;2.27;;;;;;;12.34;100.00;100952.94;7398531;19;20397;-50
2022/07/27 00:17:22;;;;;;;35.33;7.67;;;;;;;12.36;100.00;100957.34;7393058;19;20427;-56
2022/07/27 00:19:52;;;;;;;19.07;5.03;;;;;;;12.43;100.00;100964.53;7400772;19;20420;-56
2022/07/27 00:22:21;;;;;;;11.80;2.33;;;;;;;12.45;100.00;100976.66;7392267;19;20422;-56
2022/07/27 00:24:54;;;;;;;10.70;1.70;;;;;;;12.54;100.00;100977.00;7396582;19;20391;-55
2022/07/27 00:27:23;;;;;;;19.23;4.30;;;;;;;12.64;100.00;100980.81;7382989;19;20406;-53
2022/07/27 00:29:53;;;;;;;8.13;1.80;;;;;;;12.46;100.00;100984.47;7398152;19;20438;-56
2022/07/27 00:32:22;;;;;;;27.60;4.80;;;;;;;12.40;100.00;100994.56;7390545;19;20433;-56
2022/07/27 00:34:52;;;;;;;38.93;7.63;;;;;;;12.32;100.00;100998.59;7397766;19;20387;-57
2022/07/27 00:37:21;;;;;;;10.47;2.30;;;;;;;12.28;100.00;101006.25;7386987;19;20441;-52
2022/07/27 00:39:55;;;;;;;7.13;1.53;;;;;;;12.32;100.00;101011.53;7397553;19;20399;-52
2022/07/27 00:42:27;;;;;;;5.83;1.63;;;;;;;12.34;100.00;101009.88;7386553;19;20407;-52
2022/07/27 00:44:56;;;;;;;8.83;1.47;;;;;;;12.31;100.00;101026.16;7396221;19;20392;-52
2022/07/27 00:47:26;;;;;;;7.60;2.13;;;;;;;12.33;100.00;101029.69;7392172;19;20444;-51
2022/07/27 00:49:56;;;;;;;11.63;2.07;;;;;;;12.32;100.00;101027.03;7400987;19;20476;-53
2022/07/27 00:52:26;;;;;;;9.87;2.03;;;;;;;12.31;100.00;101030.47;7391316;19;20408;-52
2022/07/27 00:54:59;;;;;;;7.60;1.33;;;;;;;12.20;100.00;101030.91;7396862;19;20459;-51
2022/07/27 00:57:29;;;;;;;8.50;1.70;;;;;;;12.17;100.00;101037.66;7386209;19;20429;-55
2022/07/27 00:59:58;;;;;;;4.47;1.20;;;;;;;12.13;100.00;101042.72;7397814;19;20723;-55
2022/07/27 01:02:28;;;;;;;8.37;2.17;;;;;;;12.10;100.00;101036.56;7390899;19;20419;-55
2022/07/27 01:05:00;;;;;;;9.70;1.60;;;;;;;12.08;100.00;101033.00;7395761;19;20460;-52
2022/07/27 01:07:30;;;;;;;5.23;1.80;;;;;;;12.09;100.00;101021.84;7391083;19;20465;-53
2022/07/27 01:10:03;;;;;;;5.90;1.20;;;;;;;12.11;100.00;101028.84;7396849;19;20391;-49
2022/07/27 01:12:33;;;;;;;5.17;2.17;;;;;;;12.15;100.00;101019.50;7390387;19;20412;-50
2022/07/27 01:15:03;;;;;;;8.33;1.50;;;;;;;12.10;100.00;101011.56;7396085;19;20394;-50
2022/07/27 01:17:32;;;;;;;9.00;1.80;;;;;;;12.09;100.00;101011.50;7380817;19;20418;-49
2022/07/27 01:20:02;;;;;;;12.43;1.30;;;;;;;12.11;100.00;101008.16;7396406;19;20733;-51
2022/07/27 01:22:34;;;;;;;4.20;1.50;;;;;;;12.09;100.00;101008.91;7390406;19;20415;-51
2022/07/27 01:25:04;;;;;;;7.07;1.77;;;;;;;12.13;100.00;101005.63;7394985;19;20398;-57
2022/07/27 01:27:33;;;;;;;10.83;2.20;;;;;;;12.10;100.00;101016.72;7389162;19;20942;-49
2022/07/27 01:30:25;;;;;;;4.70;1.60;;;;;;;12.07;100.00;101023.50;7396613;19;20398;-48
2022/07/27 01:32:52;;;;;;;10.93;1.60;;;;;;;12.06;100.00;101014.88;7390395;19;20406;-49
2022/07/27 01:35:22;;;;;;;8.97;1.67;;;;;;;12.05;100.00;101014.78;7394220;19;20407;-54
2022/07/27 01:37:54;;;;;;;4.80;1.97;;;;;;;12.05;100.00;101014.78;7388073;19;20431;-50
2022/07/27 01:40:24;;;;;;;19.10;3.87;;;;;;;12.04;100.00;101015.63;7399978;19;20906;-52
2022/07/27 01:42:53;;;;;;;10.23;1.70;;;;;;;12.02;100.00;101010.34;7388580;19;20429;-52
2022/07/27 01:45:23;;;;;;;7.17;1.70;;;;;;;12.05;100.00;101013.06;7393771;19;20411;-54
2022/07/27 01:47:52;;;;;;;8.03;1.80;;;;;;;12.06;100.00;101019.16;7387955;19;20413;-53
2022/07/27 01:50:22;;;;;;;10.63;2.00;;;;;;;12.03;100.00;101014.69;7395713;19;20385;-54
2022/07/27 01:52:54;;;;;;;13.33;2.07;;;;;;;12.06;100.00;101016.56;7389497;19;20422;-55
2022/07/27 01:55:24;;;;;;;11.40;2.13;;;;;;;12.07;100.00;101010.56;7394064;19;20407;-52
2022/07/27 01:57:53;;;;;;;4.30;1.60;;;;;;;12.01;100.00;101014.63;7390052;19;20431;-55
2022/07/27 02:00:22;;;;;;;5.70;1.97;;;;;;;12.02;100.00;101016.38;7395448;19;20384;-51
2022/07/27 02:02:55;;;;;;;8.63;1.87;;;;;;;11.98;100.00;101006.75;7388469;19;20424;-50
2022/07/27 02:05:24;;;;;;;8.33;1.50;;;;;;;11.95;100.00;101010.94;7394153;19;20399;-55
2022/07/27 02:07:57;;;;;;;8.97;2.23;;;;;;;11.88;100.00;101010.69;7388220;19;20423;-50
2022/07/27 02:10:26;;;;;;;8.47;2.27;;;;;;;11.89;100.00;101016.72;7395484;19;20374;-52
2022/07/27 02:12:53;;;;;;;5.30;1.50;;;;;;;11.85;100.00;101010.53;7388645;19;20422;-50
2022/07/27 02:15:24;;;;;;;11.57;2.30;;;;;;;11.84;100.00;101010.50;7394274;19;21415;-56
2022/07/27 02:17:57;;;;;;;6.67;2.17;;;;;;;11.88;100.00;101004.63;7391665;19;20848;-50
2022/07/27 02:20:29;;;;;;;7.70;1.90;;;;;;;11.94;100.00;100999.69;7394674;19;20403;-49
2022/07/27 02:23:02;;;;;;;12.97;3.67;;;;;;;11.93;100.00;101007.38;7389238;19;20414;-49
2022/07/27 02:25:34;;;;;;;4.87;1.93;;;;;;;11.98;100.00;100996.41;7394817;19;20423;-52
2022/07/27 02:28:04;;;;;;;7.70;1.53;;;;;;;12.11;100.00;101000.38;7388365;19;20420;-52
2022/07/27 02:30:33;;;;;;;8.30;2.40;;;;;;;12.14;100.00;101004.81;7394372;19;20733;-56
2022/07/27 02:33:03;;;;;;;6.10;1.47;;;;;;;12.09;100.00;101001.16;7388099;19;20422;-53
2022/07/27 02:35:33;;;;;;;7.13;1.70;;;;;;;12.05;100.00;101012.22;7393243;19;20448;-59
2022/07/27 02:38:05;;;;;;;5.67;1.30;;;;;;;12.01;100.00;101001.69;7387532;19;20965;-53
2022/07/27 02:40:35;;;;;;;9.20;1.67;;;;;;;12.05;100.00;101002.72;7394468;19;20737;-50
2022/07/27 02:43:04;;;;;;;5.00;2.50;;;;;;;12.00;100.00;101005.09;7386340;19;20422;-48
2022/07/27 02:45:34;;;;;;;4.90;1.70;;;;;;;12.07;100.00;101005.38;7392824;19;20429;-54
2022/07/27 02:48:03;;;;;;;6.40;1.60;;;;;;;12.02;100.00;101002.59;7387658;19;20403;-54
2022/07/27 02:50:36;;;;;;;8.07;2.43;;;;;;;12.02;100.00;101005.19;7393917;19;20391;-55
2022/07/27 02:53:08;;;;;;;4.60;1.23;;;;;;;12.02;100.00;101003.47;7386876;19;20404;-52
2022/07/27 02:55:38;;;;;;;2.97;1.40;;;;;;;12.07;100.00;101000.22;7392761;19;20437;-53
2022/07/27 02:58:08;;;;;;;11.90;1.57;;;;;;;12.07;100.00;101000.22;7387397;19;20412;-52
2022/07/27 03:00:37;;;;;;;5.80;1.43;;;;;;;12.12;100.00;101001.28;7393519;19;20433;-53
2022/07/27 03:03:07;;;;;;;6.27;1.43;;;;;;;12.08;100.00;100999.38;7386926;19;20426;-50
2022/07/27 03:05:36;;;;;;;8.60;1.57;;;;;;;12.07;100.00;101005.38;7390537;19;20434;-51
2022/07/27 03:08:09;;;;;;;11.13;1.40;;;;;;;12.06;100.00;100988.13;7387197;19;20426;-56
2022/07/27 03:10:38;;;;;;;7.60;1.40;;;;;;;12.06;100.00;100994.19;7393223;19;20387;-51
2022/07/27 03:13:08;;;;;;;5.60;1.40;;;;;;;12.12;100.00;100993.53;7386659;19;20471;-50
2022/07/27 03:15:37;;;;;;;8.50;1.43;;;;;;;12.08;100.00;100994.22;7391974;19;20422;-53
2022/07/27 03:18:07;;;;;;;6.80;1.17;;;;;;;12.09;100.00;100999.47;7386398;19;20435;-54
2022/07/27 03:20:37;;;;;;;6.63;1.70;;;;;;;12.07;100.00;100995.94;7392743;19;20398;-53
2022/07/27 03:23:09;;;;;;;8.33;2.53;;;;;;;12.00;100.00;100999.94;7386241;19;20755;-54
2022/07/27 03:25:38;;;;;;;4.07;1.20;;;;;;;12.01;100.00;101006.88;7392210;19;20765;-55
2022/07/27 03:28:08;;;;;;;6.87;1.70;;;;;;;12.03;100.00;101009.53;7386552;19;20757;-54
2022/07/27 03:30:37;;;;;;;4.07;1.37;;;;;;;11.93;100.00;101008.28;7392596;19;20400;-53
2022/07/27 03:33:07;;;;;;;6.70;1.87;;;;;;;11.87;100.00;101016.69;7386472;19;20762;-54
2022/07/27 03:35:36;;;;;;;5.60;1.70;;;;;;;11.83;100.00;101016.47;7391634;19;20414;-49
2022/07/27 03:38:08;;;;;;;8.67;1.57;;;;;;;11.82;100.00;101006.94;7385606;19;20417;-51
2022/07/27 03:40:39;;;;;;;11.63;2.80;;;;;;;11.75;100.00;101017.03;7392563;19;20899;-54
2022/07/27 03:43:09;;;;;;;6.37;2.53;;;;;;;11.73;100.00;101020.38;7384690;19;20423;-54
2022/07/27 03:45:39;;;;;;;18.27;2.23;;;;;;;11.73;100.00;101016.09;7396207;19;20446;-51
2022/07/27 03:48:08;;;;;;;6.03;1.30;;;;;;;11.68;100.00;101017.63;7385877;19;20441;-53
2022/07/27 03:50:38;;;;;;;3.63;1.60;;;;;;;11.66;100.00;101019.25;7392019;19;20402;-53
2022/07/27 03:53:10;;;;;;;9.23;1.97;;;;;;;11.70;100.00;101021.13;7386801;19;20457;-53
2022/07/27 03:55:40;;;;;;;15.90;5.83;;;;;;;11.76;100.00;101015.34;7391121;19;20429;-48
2022/07/27 03:58:09;;;;;;;8.13;1.77;;;;;;;11.68;100.00;101027.06;7383904;19;20423;-56
2022/07/27 04:00:39;;;;;;;7.60;1.50;;;;;;;11.66;100.00;101014.09;7391736;19;20390;-52
2022/07/27 04:03:08;;;;;;;11.67;1.70;;;;;;;11.66;100.00;101024.44;7384259;19;20762;-51
2022/07/27 04:05:38;;;;;;;13.10;3.50;;;;;;;11.69;100.00;101019.38;7390657;19;20839;-56
2022/07/27 04:08:10;;;;;;;5.33;1.80;;;;;;;11.74;100.00;101014.38;7385617;19;20448;-50
2022/07/27 04:10:40;;;;;;;9.50;1.60;;;;;;;11.70;100.00;101015.97;7391586;19;20393;-54
2022/07/27 04:13:12;;;;;;;6.93;1.50;;;;;;;11.71;100.00;101016.88;7385206;19;20421;-51
2022/07/27 04:15:42;;;;;;;6.57;1.40;;;;;;;11.72;100.00;101019.53;7390423;19;20427;-54
2022/07/27 04:18:11;;;;;;;5.30;1.77;;;;;;;11.70;100.00;101021.13;7392064;19;20418;-54
2022/07/27 04:20:41;;;;;;;9.90;1.60;;;;;;;11.73;100.00;101021.28;7398791;19;20410;-51
2022/07/27 04:23:13;;;;;;;6.80;1.40;;;;;;;11.75;100.00;101018.75;7392694;19;20410;-53
2022/07/27 04:25:42;;;;;;;6.40;1.33;;;;;;;11.82;100.00;101019.88;7397565;19;20413;-55
2022/07/27 04:28:12;;;;;;;7.33;1.40;;;;;;;11.82;100.00;101033.69;7390232;19;20412;-50
2022/07/27 04:30:42;;;;;;;5.87;2.30;;;;;;;11.83;100.00;101026.81;7398026;19;20387;-53
2022/07/27 04:33:12;;;;;;;7.63;1.73;;;;;;;11.80;100.00;101034.47;7392086;19;20440;-49
2022/07/27 04:35:41;;;;;;;7.13;1.47;;;;;;;11.84;100.00;101033.78;7401346;19;20417;-57
2022/07/27 04:38:13;;;;;;;5.23;1.70;;;;;;;11.84;100.00;101029.47;7390612;19;20411;-46
2022/07/27 04:40:43;;;;;;;7.00;1.97;;;;;;;11.87;100.00;101033.88;7398131;19;20390;-52
2022/07/27 04:43:12;;;;;;;7.00;1.67;;;;;;;11.89;100.00;101034.81;7391262;19;20428;-50
2022/07/27 04:45:42;;;;;;;9.00;2.30;;;;;;;11.97;100.00;101032.56;7396777;19;20428;-55
2022/07/27 04:48:12;;;;;;;6.10;1.60;;;;;;;11.96;100.00;101031.69;7391233;19;20416;-55
2022/07/27 04:50:42;;;;;;;8.73;1.80;;;;;;;11.93;100.00;101031.53;7397820;19;20382;-54
2022/07/27 04:53:15;;;;;;;7.67;1.73;;;;;;;11.95;100.00;101037.66;7390976;19;20422;-51
2022/07/27 04:55:46;;;;;;;12.50;1.70;;;;;;;11.97;100.00;101043.78;7396367;19;20421;-48
2022/07/27 04:58:16;;;;;;;9.73;2.10;;;;;;;12.01;100.00;101043.06;7391063;19;20417;-50
2022/07/27 05:00:46;;;;;;;10.87;1.60;;;;;;;12.04;100.00;101051.84;7397658;19;20972;-54
2022/07/27 05:03:16;;;;;;;8.10;3.80;;;;;;;12.02;100.00;101047.41;7390371;19;20418;-52
2022/07/27 05:05:46;;;;;;;6.43;1.30;;;;;;;12.04;100.00;101046.66;7396057;19;20430;-52
2022/07/27 05:08:21;;;;;;;5.03;1.60;;;;;;;12.02;100.00;101052.59;7390757;19;20422;-50
2022/07/27 05:10:51;;;;;;;4.80;1.17;;;;;;;12.01;100.00;101053.41;7397099;19;20399;-52
2022/07/27 05:13:20;;;;;;;8.23;1.70;;;;;;;12.11;100.00;101062.47;7390373;19;20420;-58
2022/07/27 05:15:50;;;;;;;7.03;1.70;;;;;;;12.19;100.00;101067.94;7395398;19;20928;-50
2022/07/27 05:18:24;;;;;;;6.53;1.30;;;;;;;12.27;100.00;101063.94;7390351;19;20422;-52
2022/07/27 05:20:54;;;;;;;9.70;1.93;;;;;;;12.29;100.00;101069.19;7396351;19;20390;-57
2022/07/27 05:23:26;;;;;;;8.63;1.70;;;;;;;12.36;100.00;101070.34;7390371;19;20426;-54
2022/07/27 05:25:55;;;;;;;5.40;1.37;;;;;;;12.39;100.00;101076.50;7394952;19;20455;-55
2022/07/27 05:28:25;;;;;;;3.53;1.27;;;;;;;12.46;100.00;101081.94;7385612;19;20434;-54
2022/07/27 05:30:55;;;;;;;4.80;1.60;;;;;;;12.46;100.00;101087.97;7396360;19;20464;-51
2022/07/27 05:33:25;;;;;;;7.33;1.40;;;;;;;12.47;100.00;101109.56;7389188;19;20421;-53
2022/07/27 05:35:54;;;;;;;4.43;1.43;;;;;;;12.49;100.00;101108.81;7395321;19;20423;-56
2022/07/27 05:38:26;;;;;;;11.97;2.20;;;;;;;12.55;100.00;101116.81;7387447;19;20426;-55
2022/07/27 05:40:56;;;;;;;4.53;1.50;;;;;;;12.48;100.00;101132.03;7395704;19;20390;-53
2022/07/27 05:43:25;;;;;;;7.43;1.43;;;;;;;12.47;100.00;101133.75;7388702;19;20418;-51
2022/07/27 05:45:56;;;;;;;8.10;1.40;;;;;;;12.59;100.00;101137.63;7394474;19;20769;-52
2022/07/27 05:48:25;;;;;;;9.33;2.00;;;;;;;12.72;100.00;101133.81;7390627;19;20842;-51
2022/07/27 05:50:55;;;;;;;9.77;1.33;;;;;;;12.64;100.00;101154.22;7395638;19;20388;-54
2022/07/27 05:53:27;;;;;;;7.83;1.33;;;;;;;12.65;100.00;101151.72;7389146;19;20630;-51
2022/07/27 05:55:56;;;;;;;12.90;1.73;;;;;;;12.61;100.00;101159.31;7396584;19;20430;-54
2022/07/27 05:58:28;;;;;;;7.63;1.63;;;;;;;12.61;100.00;101159.31;7389147;19;20420;-54
2022/07/27 06:00:58;;;;;;;11.03;2.13;;;;;;;12.66;100.00;101168.09;7398143;19;20404;-55
2022/07/27 06:03:28;;;;;;;9.17;1.90;;;;;;;12.63;100.00;101173.19;7388778;19;20414;-50
2022/07/27 06:08:42;;;;;;;8.80;1.97;;;;;;;12.54;100.00;101169.41;7387611;19;20430;-52
2022/07/27 06:11:13;;;;;;;10.67;2.40;;;;;;;12.58;100.00;101156.56;7394445;19;20868;-55
2022/07/27 06:13:42;;;;;;;10.40;1.70;;;;;;;12.52;100.00;101150.31;7387917;19;20422;-50
2022/07/27 06:16:12;;;;;;;9.60;2.77;;;;;;;12.57;100.00;101155.72;7392975;19;20482;-54
2022/07/27 06:18:42;;;;;;;13.00;1.80;;;;;;;12.41;100.00;101136.97;7387728;19;20445;-53
2022/07/27 06:21:11;;;;;;;5.70;1.70;;;;;;;12.45;100.00;101131.94;7394604;19;20393;-49
2022/07/27 06:23:44;;;;;;;9.90;2.50;;;;;;;12.54;100.00;101117.66;7387263;19;20427;-55
2022/07/27 06:26:13;;;;;;;5.10;1.50;;;;;;;12.66;100.00;101116.34;7392986;19;20760;-49
2022/07/27 06:28:43;;;;;;;16.40;2.83;;;;;;;12.69;100.00;101114.78;7386325;19;20440;-54
2022/07/27 06:31:12;;;;;;;10.03;1.97;;;;;;;12.88;100.00;101114.59;7396945;19;20488;-49
2022/07/27 06:33:42;;;;;;;8.87;1.53;;;;;;;12.98;100.00;101119.31;7387758;19;20417;-55
2022/07/27 06:36:16;;;;;;;8.57;1.50;;;;;;;13.19;100.00;101124.38;7392792;19;20419;-56
2022/07/27 06:38:48;;;;;;;6.87;2.03;;;;;;;13.20;100.00;101122.69;7386814;19;20421;-53
2022/07/27 06:41:18;;;;;;;12.20;2.13;;;;;;;13.23;100.00;101136.63;7391541;19;20387;-53
2022/07/27 06:43:48;;;;;;;8.63;1.60;;;;;;;13.20;100.00;101144.28;7387314;19;20423;-52
2022/07/27 06:46:17;;;;;;;8.40;1.80;;;;;;;13.23;100.00;101157.34;7392899;19;20801;-52
2022/07/27 06:48:47;;;;;;;5.67;1.40;;;;;;;13.24;100.00;101169.47;7385781;19;20795;-53
2022/07/27 06:51:17;;;;;;;6.93;1.63;;;;;;;13.36;100.00;101166.47;7393431;19;20392;-54
2022/07/27 06:53:51;;;;;;;11.60;1.80;;;;;;;13.50;100.00;101179.94;7387479;19;20942;-53
2022/07/27 06:56:21;;;;;;;6.40;1.60;;;;;;;13.51;100.00;101193.81;7392853;19;20412;-53
2022/07/27 06:58:51;;;;;;;8.40;1.90;;;;;;;13.66;100.00;101209.03;7387162;19;20421;-57
2022/07/27 07:01:21;;;;;;;11.43;1.70;;;;;;;13.61;100.00;101224.44;7393543;19;20742;-52
2022/07/27 07:03:50;;;;;;;6.00;1.47;;;;;;;13.67;100.00;101236.72;7386165;19;20423;-54
2022/07/27 07:06:20;;;;;;;6.13;1.53;;;;;;;13.65;100.00;101243.59;7392528;19;20414;-52
2022/07/27 07:08:52;;;;;;;8.30;1.93;;;;;;;13.76;100.00;101265.56;7384971;19;20901;-57
2022/07/27 07:11:22;;;;;;;11.73;1.87;;;;;;;13.79;100.00;101271.72;7393281;19;20392;-55
2022/07/27 07:13:52;;;;;;;11.60;1.70;;;;;;;13.95;100.00;101288.72;7386879;19;20418;-53
2022/07/27 07:16:22;;;;;;;8.63;2.07;;;;;;;13.99;100.00;101295.78;7392535;19;20439;-55
2022/07/27 07:18:51;;;;;;;4.23;1.50;;;;;;;14.10;100.00;101325.59;7387102;19;20796;-50
2022/07/27 07:21:21;;;;;;;9.87;1.90;;;;;;;14.39;100.00;101335.25;7393133;19;20737;-54
2022/07/27 07:23:53;;;;;;;8.67;1.40;;;;;;;14.64;100.00;101359.47;7383096;19;20423;-53
2022/07/27 07:26:23;;;;;;;6.07;2.00;;;;;;;14.55;100.00;101412.84;7392467;19;20432;-54
2022/07/27 07:28:52;;;;;;;23.70;7.90;;;;;;;14.70;100.00;101453.19;7388829;19;20447;-51
2022/07/27 07:31:22;;;;;;;15.10;3.27;;;;;;;14.66;100.00;101477.28;7392706;19;20459;-57
2022/07/27 07:33:52;;;;;;;13.90;1.60;;;;;;;14.45;100.00;101510.31;7385213;19;20408;-58
2022/07/27 07:36:22;;;;;;;17.83;4.90;;;;;;;14.42;100.00;101527.47;7391474;19;20430;-53
2022/07/27 07:38:54;;;;;;;7.97;1.70;;;;;;;14.42;100.00;101541.31;7384657;19;20447;-58
2022/07/27 07:41:24;;;;;;;10.57;2.90;;;;;;;14.41;100.00;101551.66;7394364;19;20395;-53
2022/07/27 07:43:54;;;;;;;36.07;10.50;;;;;;;14.28;100.00;101545.09;7385319;19;20426;-48
2022/07/27 07:46:23;;;;;;;27.60;4.97;;;;;;;14.51;100.00;101539.91;7392813;19;20414;-51
2022/07/27 07:48:53;;;;;;;15.97;3.70;;;;;;;14.71;100.00;101551.94;7384167;19;20461;-54
2022/07/27 07:51:23;;;;;;;4.10;1.30;;;;;;;14.72;100.00;101576.22;7397100;19;20456;-53
2022/07/27 07:53:55;;;;;;;7.17;2.13;;;;;;;14.75;100.00;101604.00;7392446;19;20449;-48
2022/07/27 07:56:24;;;;;;;11.63;2.60;;;;;;;14.76;100.00;101608.41;7397807;19;20414;-52
2022/07/27 07:58:54;;;;;;;9.50;1.70;;;;;;;14.71;100.00;101618.56;7393643;19;20446;-56
2022/07/27 08:01:26;;;;;;;9.87;2.20;;;;;;;14.71;100.00;101632.44;7399311;19;20477;-56
2022/07/27 08:03:55;;;;;;;8.10;2.57;;;;;;;14.77;100.00;101637.00;7396914;19;20434;-55
2022/07/27 08:06:25;;;;;;;6.33;1.70;;;;;;;14.67;100.00;101635.75;7397542;19;20423;-55
2022/07/27 08:08:57;;;;;;;8.73;2.20;;;;;;;14.65;100.00;101645.19;7391461;19;20987;-56
2022/07/27 08:11:27;;;;;;;10.50;2.50;;;;;;;14.66;100.00;101639.19;7399706;19;20402;-58
2022/07/27 08:13:56;;;;;;;7.30;1.50;;;;;;;14.74;100.00;101620.41;7397031;19;20407;-56
2022/07/27 08:16:26;;;;;;;7.37;1.70;;;;;;;14.71;100.00;101616.88;7396761;19;20538;-57
2022/07/27 08:18:56;;;;;;;9.87;1.97;;;;;;;14.94;100.00;101580.53;7397747;19;20432;-56
2022/07/27 08:21:25;;;;;;;6.83;1.60;;;;;;;15.02;100.00;101514.97;7398764;19;20388;-53
2022/07/27 08:24:01;;;;;;;12.40;3.17;;;;;;;15.17;100.00;101444.44;7397328;19;21348;-55
2022/07/27 08:26:31;;;;;;;10.80;2.80;;;;;;;15.25;100.00;101391.00;7391215;19;20415;-58
2022/07/27 08:29:00;;;;;;;16.10;7.43;;;;;;;15.16;100.00;101385.47;7400727;19;20399;-50
2022/07/27 08:31:41;;;;;;;12.40;2.60;;;;;;;15.13;100.00;101349.91;7392270;19;20385;-54
2022/07/27 08:34:21;;;;;;;6.67;2.30;;;;;;;15.31;100.00;101343.50;7397544;19;20391;-52
2022/07/27 08:36:51;;;;;;;11.10;1.90;;;;;;;15.35;100.00;101342.78;7389406;19;20431;-52
2022/07/27 08:39:23;;;;;;;8.13;2.07;;;;;;;15.46;100.00;101337.91;7398350;19;20393;-54
2022/07/27 08:42:12;;;;;;;6.07;1.70;;;;;;;15.58;100.00;101353.88;7391763;19;20399;-57
2022/07/27 08:44:43;;;;;;;50.03;12.90;;;;;;;15.77;100.00;101334.50;7397437;19;20929;-56
2022/07/27 08:47:15;;;;;;;12.27;4.60;;;;;;;15.73;100.00;101335.25;7391915;19;20463;-51
2022/07/27 08:49:46;;;;;;;10.20;3.93;;;;;;;15.84;100.00;101319.94;7396255;19;20741;-55
2022/07/27 08:52:18;;;;;;;9.70;2.83;;;;;;;16.02;100.00;101279.72;7391669;19;20408;-53
2022/07/27 08:54:51;;;;;;;37.60;18.67;;;;;;;16.12;100.00;101241.81;7396894;19;20380;-55
2022/07/27 08:57:20;;;;;;;10.37;3.07;;;;;;;16.08;100.00;101219.13;7390338;19;20426;-56
2022/07/27 08:59:50;;;;;;;7.07;1.37;;;;;;;15.96;100.00;101189.38;7397387;19;20915;-57
2022/07/27 09:02:22;;;;;;;18.20;6.87;;;;;;;16.25;100.00;101185.75;7389027;19;20590;-52
2022/07/27 09:04:52;;;;;;;6.80;1.97;;;;;;;16.41;100.00;101177.47;7395502;19;20390;-54
2022/07/27 09:07:30;;;;;;;7.03;1.10;;;;;;;16.28;100.00;101102.50;7389590;19;20417;-53
2022/07/27 09:10:02;;;;;;;10.33;4.17;;;;;;;16.30;100.00;101112.13;7395432;19;20388;-57
2022/07/27 09:12:33;;;;;;;12.77;2.10;;;;;;;16.04;100.00;101093.25;7389990;19;20426;-59
2022/07/27 09:15:09;;;;;;;5.20;1.60;;;;;;;15.90;100.00;101046.94;7396241;19;20462;-52
2022/07/27 09:17:39;;;;;;;13.50;3.10;;;;;;;15.83;100.00;101078.00;7390373;19;20416;-51
2022/07/27 09:20:20;;;;;;;20.77;4.03;;;;;;;15.71;100.00;101070.72;7396622;19;20397;-54
2022/07/27 09:22:52;;;;;;;7.90;1.20;;;;;;;15.69;100.00;101062.88;7390608;19;20414;-54
2022/07/27 09:25:26;;;;;;;9.17;1.67;;;;;;;15.83;100.00;101041.56;7395629;19;20410;-50
2022/07/27 09:28:15;;;;;;;13.27;2.20;;;;;;;15.93;100.00;101025.34;7389541;19;20424;-58
2022/07/27 09:30:45;;;;;;;7.80;1.97;;;;;;;15.90;100.00;101033.06;7394450;19;20386;-54
2022/07/27 09:33:16;;;;;;;7.37;1.60;;;;;;;16.11;100.00;101037.94;7387551;19;20953;-57
2022/07/27 09:35:59;;;;;;;4.90;1.30;;;;;;;16.19;100.00;101038.09;7394990;19;20415;-56
2022/07/27 09:38:28;;;;;;;4.07;1.27;;;;;;;16.06;100.00;101034.34;7388024;19;20432;-55
2022/07/27 09:41:03;;;;;;;25.13;2.80;;;;;;;16.20;100.00;101037.25;7396074;19;20372;-55
2022/07/27 09:43:46;;;;;;;14.57;3.40;;;;;;;16.30;100.00;101015.78;7390294;19;20429;-59
2022/07/27 09:46:37;;;;;;;5.13;1.43;;;;;;;16.38;100.00;101025.50;7390582;19;20422;-56
2022/07/27 09:49:07;;;;;;;6.10;1.20;;;;;;;16.42;100.00;101032.53;7394301;19;20408;-57
2022/07/27 09:51:46;;;;;;;7.30;1.43;;;;;;;16.52;100.00;101034.50;7394197;19;20398;-58
2022/07/27 09:54:45;;;;;;;3.57;0.90;;;;;;;16.42;100.00;101063.78;7394956;19;20394;-54
2022/07/27 09:57:18;;;;;;;7.93;1.50;;;;;;;16.24;100.00;101059.03;7389955;19;20422;-59
2022/07/27 09:59:48;;;;;;;5.13;1.50;;;;;;;16.21;100.00;101065.06;7400055;19;20636;-53
2022/07/27 10:02:18;;;;;;;4.87;1.30;;;;;;;16.22;100.00;101046.00;7388188;19;20463;-56
2022/07/27 10:04:48;;;;;;;12.73;2.50;;;;;;;16.37;100.00;101037.66;7398702;19;20398;-51
2022/07/27 10:07:20;;;;;;;5.50;1.50;;;;;;;16.53;100.00;101024.94;7389672;19;20498;-56
2022/07/27 10:09:49;;;;;;;8.30;1.40;;;;;;;16.69;100.00;101007.91;7394972;19;20383;-56
2022/07/27 10:12:22;;;;;;;6.00;1.23;;;;;;;17.15;100.00;101007.97;7388576;19;20393;-55
2022/07/27 10:14:51;;;;;;;6.87;1.40;;;;;;;17.26;100.00;100972.56;7393836;19;20391;-52
2022/07/27 10:17:21;;;;;;;18.63;4.87;;;;;;;17.27;100.00;100974.31;7387027;19;20406;-54
2022/07/27 10:19:51;;;;;;;5.70;1.30;;;;;;;17.17;100.00;100972.38;7393641;19;20430;-54
2022/07/27 10:22:50;;;;;;;6.57;1.20;;;;;;;17.46;100.00;100973.72;7387154;19;21293;-54
2022/07/27 10:25:20;;;;;;;5.97;1.40;;;;;;;17.71;100.00;100990.69;7390720;19;20405;-55
2022/07/27 10:28:10;;;;;;;4.50;1.17;;;;;;;17.91;100.00;101005.75;7383457;19;20761;-54
2022/07/27 10:30:40;;;;;;;5.63;1.33;;;;;;;18.03;100.00;101024.22;7389996;19;20391;-52
2022/07/27 10:33:17;;;;;;;7.57;1.37;;;;;;;17.92;100.00;101000.56;7385447;19;20821;-56
2022/07/27 10:35:47;;;;;;;4.53;1.00;;;;;;;17.80;100.00;100989.94;7393126;19;20448;-54
2022/07/27 10:38:17;;;;;;;4.53;1.10;;;;;;;17.18;100.00;100968.91;7385777;19;20414;-56
2022/07/27 10:40:48;;;;;;;6.77;2.17;;;;;;;17.18;100.00;100979.34;7392572;19;20398;-55
2022/07/27 10:43:23;;;;;;;4.97;1.10;;;;;;;17.12;100.00;101005.28;7384435;19;20432;-57
2022/07/27 10:45:54;;;;;;;3.93;0.93;;;;;;;17.06;100.00;101000.84;7390574;19;20408;-54
2022/07/27 10:48:39;;;;;;;6.20;1.20;;;;;;;16.99;100.00;101015.44;7384932;19;20413;-55
2022/07/27 10:51:18;;;;;;;9.73;1.30;;;;;;;17.16;100.00;101016.69;7391267;19;20402;-59
2022/07/27 10:53:47;;;;;;;6.83;1.00;;;;;;;17.20;100.00;100958.53;7385904;19;20426;-56
2022/07/27 10:56:46;;;;;;;4.83;1.10;;;;;;;17.00;100.00;100944.25;7385126;19;20398;-52
2022/07/27 10:59:53;;;;;;;5.77;1.20;;;;;;;16.88;100.00;100892.78;7391619;19;20383;-54
2022/07/27 11:02:44;;;;;;;4.73;1.37;;;;;;;17.13;100.00;100861.97;7384982;19;20420;-55
2022/07/27 11:05:14;;;;;;;4.73;1.00;;;;;;;17.19;100.00;100861.19;7391085;19;20404;-55
2022/07/27 11:08:04;;;;;;;10.60;1.53;;;;;;;17.16;100.00;100875.91;7386594;19;20415;-54
2022/07/27 11:10:54;;;;;;;6.13;1.20;;;;;;;17.09;100.00;100946.19;7391706;19;20375;-55
2022/07/27 11:13:27;;;;;;;7.80;1.30;;;;;;;16.97;100.00;100948.53;7385076;19;20414;-54
2022/07/27 11:16:12;;;;;;;9.30;1.43;;;;;;;16.94;100.00;100933.72;7391255;19;20437;-55
2022/07/27 11:18:55;;;;;;;8.20;1.30;;;;;;;17.04;100.00;100950.44;7386938;19;20883;-53
2022/07/27 11:21:26;;;;;;;5.47;1.60;;;;;;;16.94;100.00;100948.47;7392924;19;20392;-59
2022/07/27 11:23:57;;;;;;;5.47;1.23;;;;;;;16.97;100.00;100945.94;7390796;19;20412;-49
2022/07/27 11:26:28;;;;;;;5.60;1.30;;;;;;;16.99;100.00;100944.22;7393108;19;20415;-52
2022/07/27 11:28:58;;;;;;;6.97;1.40;;;;;;;16.86;100.00;100941.41;7399223;19;20415;-56
2022/07/27 11:31:30;;;;;;;8.53;1.60;;;;;;;16.90;100.00;100933.63;7398366;19;20386;-56
2022/07/27 11:34:20;;;;;;;5.60;1.10;;;;;;;16.85;100.00;100939.63;7399974;19;20414;-54
2022/07/27 11:36:51;;;;;;;4.23;1.17;;;;;;;16.68;100.00;100938.44;7391738;19;20472;-51
2022/07/27 11:39:26;;;;;;;6.23;1.23;;;;;;;16.75;100.00;100942.91;7400747;19;20452;-56